NSZ3080 EKCH-EKYT
Flight info
| Callsign | NSZ3080 |
|---|---|
| Flight time | 0h 29m |
| Altitude | 16000 |
| Route | GOLGA DCT BAKIT |
| Aircraft | B38M/M-SDE1FGHILORVWXY/HB1 |
Departure
| Time | 2026-04-30 21:21 |
|---|---|
| Airport | Copenhagen Kastrup Airport (EKCH) |
Arrival
| Time | 2026-04-30 21:50 |
|---|---|
| Airport | Aalborg Airport (EKYT) |
| Time | Latitude | Longitude | Altitude | Speed | Heading |
|---|---|---|---|---|---|
| 2026-04-30 20:50 | 55.62786 | 12.64156 | 26 ft | 0 kts | 122° |
| 2026-04-30 20:59 | 55.62787 | 12.64152 | 26 ft | 0 kts | 122° |
| 2026-04-30 21:00 | 55.62794 | 12.64132 | 28 ft | 2 kts | 121° |
| 2026-04-30 21:01 | 55.62810 | 12.64080 | 29 ft | 2 kts | 114° |
| 2026-04-30 21:01 | 55.62815 | 12.64053 | 30 ft | 2 kts | 103° |
| 2026-04-30 21:01 | 55.62822 | 12.63996 | 30 ft | 2 kts | 104° |
| 2026-04-30 21:02 | 55.62826 | 12.63968 | 28 ft | 2 kts | 105° |
| 2026-04-30 21:02 | 55.62830 | 12.63939 | 29 ft | 2 kts | 105° |
| 2026-04-30 21:02 | 55.62834 | 12.63911 | 30 ft | 2 kts | 105° |
| 2026-04-30 21:02 | 55.62839 | 12.63883 | 31 ft | 2 kts | 104° |
| 2026-04-30 21:03 | 55.62841 | 12.63866 | 30 ft | 1 kts | 104° |
| 2026-04-30 21:03 | 55.62841 | 12.63865 | 30 ft | 0 kts | 103° |
| 2026-04-30 21:08 | 55.62838 | 12.63888 | 27 ft | 6 kts | 103° |
| 2026-04-30 21:08 | 55.62802 | 12.63958 | 26 ft | 9 kts | 166° |
| 2026-04-30 21:09 | 55.62741 | 12.63915 | 28 ft | 11 kts | 213° |
| 2026-04-30 21:09 | 55.62704 | 12.63873 | 27 ft | 0 kts | 213° |
| 2026-04-30 21:11 | 55.62685 | 12.63851 | 26 ft | 6 kts | 212° |
| 2026-04-30 21:11 | 55.62623 | 12.63788 | 27 ft | 13 kts | 201° |
| 2026-04-30 21:11 | 55.62589 | 12.63772 | 26 ft | 0 kts | 188° |
| 2026-04-30 21:16 | 55.62583 | 12.63770 | 26 ft | 6 kts | 185° |
| 2026-04-30 21:16 | 55.62502 | 12.63791 | 28 ft | 18 kts | 159° |
| 2026-04-30 21:17 | 55.62398 | 12.63968 | 26 ft | 23 kts | 122° |
| 2026-04-30 21:17 | 55.62307 | 12.64215 | 24 ft | 25 kts | 123° |
| 2026-04-30 21:17 | 55.62230 | 12.64399 | 26 ft | 16 kts | 147° |
| 2026-04-30 21:17 | 55.62119 | 12.64436 | 27 ft | 16 kts | 169° |
| 2026-04-30 21:18 | 55.62004 | 12.64474 | 28 ft | 18 kts | 170° |
| 2026-04-30 21:18 | 55.61872 | 12.64517 | 27 ft | 21 kts | 170° |
| 2026-04-30 21:18 | 55.61734 | 12.64564 | 28 ft | 12 kts | 171° |
| 2026-04-30 21:18 | 55.61644 | 12.64529 | 28 ft | 18 kts | 213° |
| 2026-04-30 21:19 | 55.61515 | 12.64379 | 26 ft | 24 kts | 213° |
| 2026-04-30 21:19 | 55.61367 | 12.64209 | 29 ft | 26 kts | 213° |
| 2026-04-30 21:19 | 55.61212 | 12.64031 | 26 ft | 27 kts | 213° |
| 2026-04-30 21:19 | 55.61052 | 12.63846 | 27 ft | 28 kts | 213° |
| 2026-04-30 21:20 | 55.60888 | 12.63658 | 28 ft | 20 kts | 213° |
| 2026-04-30 21:20 | 55.60802 | 12.63590 | 27 ft | 13 kts | 170° |
| 2026-04-30 21:20 | 55.60736 | 12.63701 | 26 ft | 14 kts | 131° |
| 2026-04-30 21:20 | 55.60692 | 12.63856 | 28 ft | 14 kts | 82° |
| 2026-04-30 21:21 | 55.60784 | 12.64035 | 29 ft | 45 kts | 41° |
| 2026-04-30 21:21 | 55.61255 | 12.64763 | 27 ft | 129 kts | 41° |
| 2026-04-30 21:21 | 55.63170 | 12.67734 | 620 ft | 231 kts | 40° |
| 2026-04-30 21:22 | 55.64471 | 12.69701 | 1531 ft | 253 kts | 34° |
| 2026-04-30 21:22 | 55.69369 | 12.70749 | 5058 ft | 261 kts | 330° |
| 2026-04-30 21:23 | 55.70763 | 12.68625 | 6053 ft | 269 kts | 316° |
| 2026-04-30 21:23 | 55.72114 | 12.66309 | 7064 ft | 272 kts | 319° |
| 2026-04-30 21:23 | 55.74895 | 12.61628 | 9021 ft | 279 kts | 319° |
| 2026-04-30 21:24 | 55.76306 | 12.59255 | 9996 ft | 282 kts | 319° |
| 2026-04-30 21:24 | 55.77749 | 12.56827 | 10837 ft | 290 kts | 319° |
| 2026-04-30 21:24 | 55.79265 | 12.54292 | 11302 ft | 310 kts | 320° |
| 2026-04-30 21:24 | 55.80880 | 12.51597 | 11796 ft | 326 kts | 319° |
| 2026-04-30 21:25 | 55.84238 | 12.45955 | 13304 ft | 339 kts | 320° |
| 2026-04-30 21:25 | 55.85551 | 12.43737 | 13878 ft | 343 kts | 320° |
| 2026-04-30 21:25 | 55.87289 | 12.40793 | 14633 ft | 348 kts | 320° |
| 2026-04-30 21:26 | 55.90823 | 12.34789 | 16109 ft | 353 kts | 320° |
| 2026-04-30 21:26 | 55.92614 | 12.31742 | 16810 ft | 356 kts | 319° |
| 2026-04-30 21:27 | 55.96222 | 12.25587 | 18219 ft | 362 kts | 319° |
| 2026-04-30 21:27 | 55.98054 | 12.22457 | 18865 ft | 365 kts | 319° |
| 2026-04-30 21:27 | 55.99894 | 12.19309 | 19448 ft | 368 kts | 319° |
| 2026-04-30 21:28 | 56.03623 | 12.12914 | 20338 ft | 372 kts | 319° |
| 2026-04-30 21:28 | 56.05406 | 12.09844 | 20430 ft | 370 kts | 319° |
| 2026-04-30 21:28 | 56.09115 | 12.03449 | 20426 ft | 369 kts | 319° |
| 2026-04-30 21:29 | 56.10962 | 12.00257 | 20425 ft | 369 kts | 319° |
| 2026-04-30 21:29 | 56.16509 | 11.90652 | 20431 ft | 370 kts | 319° |
| 2026-04-30 21:30 | 56.20210 | 11.84219 | 20427 ft | 370 kts | 318° |
| 2026-04-30 21:31 | 56.25704 | 11.74622 | 20429 ft | 351 kts | 318° |
| 2026-04-30 21:31 | 56.28983 | 11.68840 | 20177 ft | 316 kts | 318° |
| 2026-04-30 21:32 | 56.32158 | 11.63268 | 19490 ft | 324 kts | 318° |
| 2026-04-30 21:32 | 56.33769 | 11.60442 | 19145 ft | 329 kts | 318° |
| 2026-04-30 21:32 | 56.35409 | 11.57560 | 18817 ft | 329 kts | 318° |
| 2026-04-30 21:32 | 56.37046 | 11.54680 | 18464 ft | 329 kts | 318° |
| 2026-04-30 21:33 | 56.38677 | 11.51803 | 18086 ft | 327 kts | 318° |
| 2026-04-30 21:33 | 56.41927 | 11.46059 | 17417 ft | 325 kts | 318° |
| 2026-04-30 21:33 | 56.43540 | 11.43202 | 17081 ft | 324 kts | 317° |
| 2026-04-30 21:34 | 56.45145 | 11.40357 | 16741 ft | 323 kts | 317° |
| 2026-04-30 21:34 | 56.48345 | 11.34672 | 16078 ft | 321 kts | 317° |
| 2026-04-30 21:34 | 56.49938 | 11.31838 | 15749 ft | 320 kts | 317° |
| 2026-04-30 21:35 | 56.51519 | 11.29021 | 15416 ft | 319 kts | 317° |
| 2026-04-30 21:35 | 56.53102 | 11.26198 | 15082 ft | 319 kts | 317° |
| 2026-04-30 21:35 | 56.54406 | 11.23868 | 14811 ft | 318 kts | 317° |
| 2026-04-30 21:35 | 56.55978 | 11.21058 | 14484 ft | 317 kts | 317° |
| 2026-04-30 21:36 | 56.57546 | 11.18251 | 14147 ft | 316 kts | 317° |
| 2026-04-30 21:36 | 56.59108 | 11.15455 | 13779 ft | 315 kts | 317° |
| 2026-04-30 21:37 | 56.63722 | 11.07163 | 12779 ft | 310 kts | 317° |
| 2026-04-30 21:37 | 56.65265 | 11.04385 | 12480 ft | 309 kts | 316° |
| 2026-04-30 21:37 | 56.66787 | 11.01638 | 12151 ft | 306 kts | 316° |
| 2026-04-30 21:37 | 56.68267 | 10.98966 | 11836 ft | 302 kts | 316° |
| 2026-04-30 21:38 | 56.69752 | 10.96280 | 11521 ft | 298 kts | 316° |
| 2026-04-30 21:38 | 56.71213 | 10.93635 | 11210 ft | 295 kts | 316° |
| 2026-04-30 21:38 | 56.72658 | 10.91016 | 10907 ft | 292 kts | 316° |
| 2026-04-30 21:38 | 56.74078 | 10.88440 | 10689 ft | 284 kts | 315° |
| 2026-04-30 21:39 | 56.75458 | 10.85931 | 10556 ft | 275 kts | 315° |
| 2026-04-30 21:39 | 56.76789 | 10.83506 | 10403 ft | 266 kts | 315° |
| 2026-04-30 21:39 | 56.78093 | 10.81133 | 10106 ft | 268 kts | 315° |
| 2026-04-30 21:39 | 56.79431 | 10.78698 | 9791 ft | 274 kts | 315° |
| 2026-04-30 21:40 | 56.80784 | 10.76233 | 9487 ft | 275 kts | 315° |
| 2026-04-30 21:40 | 56.82141 | 10.73758 | 9191 ft | 275 kts | 315° |
| 2026-04-30 21:40 | 56.83493 | 10.71289 | 8899 ft | 275 kts | 315° |
| 2026-04-30 21:40 | 56.84845 | 10.68815 | 8594 ft | 274 kts | 315° |
| 2026-04-30 21:41 | 56.86193 | 10.66347 | 8313 ft | 274 kts | 315° |
| 2026-04-30 21:41 | 56.87537 | 10.63886 | 8016 ft | 273 kts | 314° |
| 2026-04-30 21:41 | 56.88874 | 10.61432 | 7720 ft | 272 kts | 314° |
| 2026-04-30 21:41 | 56.90204 | 10.58988 | 7432 ft | 271 kts | 314° |
| 2026-04-30 21:42 | 56.91532 | 10.56545 | 7143 ft | 269 kts | 314° |
| 2026-04-30 21:42 | 56.92834 | 10.54149 | 6852 ft | 268 kts | 314° |
| 2026-04-30 21:42 | 56.94143 | 10.51739 | 6554 ft | 267 kts | 314° |
| 2026-04-30 21:42 | 56.95451 | 10.49325 | 6253 ft | 265 kts | 314° |
| 2026-04-30 21:43 | 56.96746 | 10.46933 | 5958 ft | 263 kts | 314° |
| 2026-04-30 21:43 | 56.97601 | 10.45355 | 5768 ft | 262 kts | 314° |
| 2026-04-30 21:43 | 56.99311 | 10.42189 | 5382 ft | 260 kts | 313° |
| 2026-04-30 21:43 | 57.00576 | 10.39849 | 5100 ft | 258 kts | 313° |
| 2026-04-30 21:44 | 57.01838 | 10.37503 | 4806 ft | 256 kts | 313° |
| 2026-04-30 21:44 | 57.03088 | 10.35187 | 4532 ft | 254 kts | 313° |
| 2026-04-30 21:44 | 57.04310 | 10.32917 | 4368 ft | 245 kts | 313° |
| 2026-04-30 21:44 | 57.05469 | 10.30763 | 4252 ft | 229 kts | 312° |
| 2026-04-30 21:45 | 57.06554 | 10.28747 | 4125 ft | 215 kts | 312° |
| 2026-04-30 21:45 | 57.07565 | 10.26866 | 3998 ft | 210 kts | 312° |
| 2026-04-30 21:45 | 57.08616 | 10.24900 | 3893 ft | 219 kts | 313° |
| 2026-04-30 21:45 | 57.09692 | 10.22889 | 3599 ft | 221 kts | 313° |
| 2026-04-30 21:46 | 57.10753 | 10.20862 | 3306 ft | 218 kts | 306° |
| 2026-04-30 21:46 | 57.11376 | 10.18397 | 3065 ft | 211 kts | 280° |
| 2026-04-30 21:46 | 57.11465 | 10.15825 | 3056 ft | 191 kts | 267° |
| 2026-04-30 21:46 | 57.11339 | 10.13449 | 2859 ft | 184 kts | 264° |
| 2026-04-30 21:47 | 57.11182 | 10.11127 | 2582 ft | 180 kts | 263° |
| 2026-04-30 21:47 | 57.11032 | 10.08892 | 2414 ft | 175 kts | 264° |
| 2026-04-30 21:47 | 57.10890 | 10.06681 | 2149 ft | 173 kts | 264° |
| 2026-04-30 21:47 | 57.10746 | 10.04492 | 1899 ft | 171 kts | 265° |
| 2026-04-30 21:48 | 57.10606 | 10.02344 | 1641 ft | 168 kts | 264° |
| 2026-04-30 21:48 | 57.10469 | 10.00248 | 1473 ft | 160 kts | 265° |
| 2026-04-30 21:48 | 57.10346 | 9.98332 | 1228 ft | 142 kts | 265° |
| 2026-04-30 21:48 | 57.10237 | 9.96660 | 1056 ft | 125 kts | 264° |
| 2026-04-30 21:49 | 57.10134 | 9.95071 | 852 ft | 125 kts | 264° |
| 2026-04-30 21:49 | 57.10028 | 9.93464 | 700 ft | 129 kts | 264° |
| 2026-04-30 21:49 | 57.09921 | 9.91783 | 509 ft | 134 kts | 263° |
| 2026-04-30 21:49 | 57.09808 | 9.90072 | 316 ft | 137 kts | 261° |
| 2026-04-30 21:50 | 57.09697 | 9.88379 | 93 ft | 134 kts | 262° |
| 2026-04-30 21:50 | 57.09594 | 9.86767 | 22 ft | 114 kts | 262° |
| 2026-04-30 21:50 | 57.09527 | 9.85709 | 22 ft | 52 kts | 263° |
| 2026-04-30 21:50 | 57.09499 | 9.85279 | 21 ft | 30 kts | 263° |
| 2026-04-30 21:51 | 57.09474 | 9.84889 | 21 ft | 31 kts | 263° |
| 2026-04-30 21:51 | 57.09448 | 9.84489 | 21 ft | 32 kts | 263° |
| 2026-04-30 21:51 | 57.09430 | 9.84293 | 21 ft | 11 kts | 235° |
| 2026-04-30 21:51 | 57.09388 | 9.84305 | 22 ft | 11 kts | 140° |
| 2026-04-30 21:52 | 57.09325 | 9.84399 | 23 ft | 13 kts | 143° |
| 2026-04-30 21:52 | 57.09261 | 9.84523 | 22 ft | 14 kts | 109° |
| 2026-04-30 21:52 | 57.09268 | 9.84717 | 21 ft | 16 kts | 83° |
| 2026-04-30 21:52 | 57.09282 | 9.84934 | 21 ft | 18 kts | 83° |
| 2026-04-30 21:53 | 57.09298 | 9.85174 | 23 ft | 20 kts | 83° |
| 2026-04-30 21:53 | 57.09314 | 9.85438 | 23 ft | 22 kts | 83° |
| 2026-04-30 21:53 | 57.09333 | 9.85723 | 22 ft | 23 kts | 84° |
| 2026-04-30 21:53 | 57.09338 | 9.85881 | 21 ft | 6 kts | 105° |
| 2026-04-30 21:54 | 57.09280 | 9.85975 | 23 ft | 16 kts | 143° |
| 2026-04-30 21:54 | 57.09183 | 9.86112 | 24 ft | 19 kts | 142° |
| 2026-04-30 21:54 | 57.09074 | 9.86264 | 23 ft | 20 kts | 143° |
| 2026-04-30 21:54 | 57.08956 | 9.86429 | 21 ft | 22 kts | 141° |
| 2026-04-30 21:55 | 57.08831 | 9.86612 | 21 ft | 24 kts | 139° |
| 2026-04-30 21:55 | 57.08714 | 9.86785 | 21 ft | 18 kts | 137° |
| 2026-04-30 21:55 | 57.08669 | 9.86859 | 21 ft | 4 kts | 138° |
| 2026-04-30 21:55 | 57.08641 | 9.86907 | 21 ft | 7 kts | 135° |
| 2026-04-30 21:56 | 57.08610 | 9.86963 | 21 ft | 2 kts | 129° |
| 2026-04-30 21:56 | 57.08611 | 9.86983 | 24 ft | 1 kts | 52° |
| 2026-04-30 21:56 | 57.08638 | 9.87034 | 21 ft | 3 kts | 57° |
| 2026-04-30 21:56 | 57.08643 | 9.87050 | 21 ft | 0 kts | 56° |